Buck Creek, Indiana
Current Conditions -  °F | °C
As of 8:54 AM on Wednesday 22 Oct 2014 (Local Time) from KLAF Reporting Station
Clear Clear  
Wind Chill: 35°   Ceiling: Unl
Heat Index: 35°   Visibility: 10mi
Dew Point: 35°   Wind: 3mph
Humidity: 100%   Direction: 40°NE
Pressure: 30.33"   Gusts: NA
Location:  40.49°N, 86.76°W
Report Text: KLAF 221254Z 04003KT 10SM CLR 02/02 A3033 RMK AO2 SLP274 T00170017
Loading
Personal Weather Stations






























Interactive Weather Map
Tropical Storm Tracking
New forecast layout! Learn more

10-Day Weather Forecast

Advertisements
Track Severe Weather on mobile